sensor_id;sensor_type;location;lat;lon;timestamp;pressure;altitude;pressure_sealevel;temperature;humidity
44297;BME280;51842;47.450;8.654;2023-04-24T00:00:16;94729.06;;;9.09;98.22
44297;BME280;51842;47.450;8.654;2023-04-24T00:02:44;94726.13;;;9.10;98.53
44297;BME280;51842;47.450;8.654;2023-04-24T00:05:16;94726.69;;;9.07;98.91
44297;BME280;51842;47.450;8.654;2023-04-24T00:07:44;94722.47;;;9.01;98.05
44297;BME280;51842;47.450;8.654;2023-04-24T00:10:11;94724.28;;;9.06;98.82
44297;BME280;51842;47.450;8.654;2023-04-24T00:12:38;94724.34;;;9.00;98.32
44297;BME280;51842;47.450;8.654;2023-04-24T00:15:05;94726.22;;;9.00;98.83
44297;BME280;51842;47.450;8.654;2023-04-24T00:17:31;94724.06;;;9.02;99.20
44297;BME280;51842;47.450;8.654;2023-04-24T00:19:57;94728.56;;;9.01;99.66
44297;BME280;51842;47.450;8.654;2023-04-24T00:22:26;94725.47;;;8.89;98.70
44297;BME280;51842;47.450;8.654;2023-04-24T00:24:52;94733.41;;;8.89;99.90
44297;BME280;51842;47.450;8.654;2023-04-24T00:27:18;94727.84;;;8.91;100.00
44297;BME280;51842;47.450;8.654;2023-04-24T00:29:43;94724.13;;;8.87;99.80
44297;BME280;51842;47.450;8.654;2023-04-24T00:32:09;94728.47;;;8.77;98.90
44297;BME280;51842;47.450;8.654;2023-04-24T00:34:35;94728.72;;;8.81;99.40
44297;BME280;51842;47.450;8.654;2023-04-24T00:37:01;94723.97;;;8.73;98.94
44297;BME280;51842;47.450;8.654;2023-04-24T00:39:26;94721.84;;;8.75;99.62
44297;BME280;51842;47.450;8.654;2023-04-24T00:41:52;94718.09;;;8.76;99.65
44297;BME280;51842;47.450;8.654;2023-04-24T00:44:19;94721.84;;;8.70;100.00
44297;BME280;51842;47.450;8.654;2023-04-24T00:46:46;94715.75;;;8.64;99.54
44297;BME280;51842;47.450;8.654;2023-04-24T00:49:13;94719.50;;;8.63;99.81
44297;BME280;51842;47.450;8.654;2023-04-24T00:51:39;94719.75;;;8.62;100.00
44297;BME280;51842;47.450;8.654;2023-04-24T00:54:06;94721.13;;;8.59;100.00
44297;BME280;51842;47.450;8.654;2023-04-24T00:56:32;94719.78;;;8.56;100.00
44297;BME280;51842;47.450;8.654;2023-04-24T00:58:58;94715.28;;;8.57;100.00
44297;BME280;51842;47.450;8.654;2023-04-24T01:01:24;94714.19;;;8.58;100.00
44297;BME280;51842;47.450;8.654;2023-04-24T01:03:51;94712.31;;;8.58;100.00
44297;BME280;51842;47.450;8.654;2023-04-24T01:06:19;94714.97;;;8.58;100.00
44297;BME280;51842;47.450;8.654;2023-04-24T01:08:46;94717.94;;;8.57;100.00
44297;BME280;51842;47.450;8.654;2023-04-24T01:11:13;94711.28;;;8.54;100.00
44297;BME280;51842;47.450;8.654;2023-04-24T01:13:40;94715.81;;;8.49;99.64
44297;BME280;51842;47.450;8.654;2023-04-24T01:16:06;94714.25;;;8.53;100.00
44297;BME280;51842;47.450;8.654;2023-04-24T01:18:31;94721.66;;;8.51;98.56
44297;BME280;51842;47.450;8.654;2023-04-24T01:20:59;94712.63;;;8.52;98.59
44297;BME280;51842;47.450;8.654;2023-04-24T01:23:28;94717.16;;;8.51;97.69
44297;BME280;51842;47.450;8.654;2023-04-24T01:25:54;94715.56;;;8.55;98.83
44297;BME280;51842;47.450;8.654;2023-04-24T01:28:21;94720.34;;;8.53;98.14
44297;BME280;51842;47.450;8.654;2023-04-24T01:30:47;94721.66;;;8.51;96.21
44297;BME280;51842;47.450;8.654;2023-04-24T01:33:13;94715.81;;;8.54;95.90
44297;BME280;51842;47.450;8.654;2023-04-24T01:35:40;94725.34;;;8.55;96.25
44297;BME280;51842;47.450;8.654;2023-04-24T01:38:06;94728.53;;;8.57;96.68
44297;BME280;51842;47.450;8.654;2023-04-24T01:40:32;94728.00;;;8.55;96.21
44297;BME280;51842;47.450;8.654;2023-04-24T01:42:58;94723.00;;;8.53;95.13
44297;BME280;51842;47.450;8.654;2023-04-24T01:45:24;94727.25;;;8.49;95.52
44297;BME280;51842;47.450;8.654;2023-04-24T01:47:50;94723.28;;;8.42;93.08
44297;BME280;51842;47.450;8.654;2023-04-24T01:50:17;94720.88;;;8.45;94.71
44297;BME280;51842;47.450;8.654;2023-04-24T01:52:43;94724.63;;;8.44;94.39
44297;BME280;51842;47.450;8.654;2023-04-24T01:55:10;94725.94;;;8.42;94.99
44297;BME280;51842;47.450;8.654;2023-04-24T01:57:36;94726.22;;;8.40;95.60
44297;BME280;51842;47.450;8.654;2023-04-24T02:00:03;94738.69;;;8.34;95.74
44297;BME280;51842;47.450;8.654;2023-04-24T02:02:30;94730.47;;;8.31;95.86
44297;BME280;51842;47.450;8.654;2023-04-24T02:04:56;94740.31;;;8.30;96.41
44297;BME280;51842;47.450;8.654;2023-04-24T02:07:22;94725.41;;;8.34;96.53
44297;BME280;51842;47.450;8.654;2023-04-24T02:09:48;94723.56;;;8.30;96.97
44297;BME280;51842;47.450;8.654;2023-04-24T02:12:17;94723.59;;;8.20;96.35
44297;BME280;51842;47.450;8.654;2023-04-24T02:14:43;94731.31;;;8.21;97.32
44297;BME280;51842;47.450;8.654;2023-04-24T02:17:10;94730.50;;;8.21;97.53
44297;BME280;51842;47.450;8.654;2023-04-24T02:19:37;94731.03;;;8.18;97.53
44297;BME280;51842;47.450;8.654;2023-04-24T02:22:03;94719.63;;;8.17;97.50
44297;BME280;51842;47.450;8.654;2023-04-24T02:24:29;94721.22;;;8.18;97.81
44297;BME280;51842;47.450;8.654;2023-04-24T02:26:54;94728.66;;;8.11;96.55
44297;BME280;51842;47.450;8.654;2023-04-24T02:29:21;94718.59;;;8.13;97.58
44297;BME280;51842;47.450;8.654;2023-04-24T02:31:47;94723.88;;;8.08;96.29
44297;BME280;51842;47.450;8.654;2023-04-24T02:34:12;94723.63;;;8.09;96.98
44297;BME280;51842;47.450;8.654;2023-04-24T02:36:38;94722.84;;;8.09;97.04
44297;BME280;51842;47.450;8.654;2023-04-24T02:39:04;94723.63;;;8.09;97.42
44297;BME280;51842;47.450;8.654;2023-04-24T02:41:30;94722.06;;;8.08;97.85
44297;BME280;51842;47.450;8.654;2023-04-24T02:43:58;94726.03;;;8.06;98.37
44297;BME280;51842;47.450;8.654;2023-04-24T02:46:25;94721.78;;;8.05;98.55
44297;BME280;51842;47.450;8.654;2023-04-24T02:48:52;94721.53;;;8.01;98.75
44297;BME280;51842;47.450;8.654;2023-04-24T02:51:17;94724.22;;;7.96;98.60
44297;BME280;51842;47.450;8.654;2023-04-24T02:53:43;94715.97;;;7.98;99.40
44297;BME280;51842;47.450;8.654;2023-04-24T02:56:09;94714.94;;;7.94;98.18
44297;BME280;51842;47.450;8.654;2023-04-24T02:58:37;94708.53;;;7.95;98.14
44297;BME280;51842;47.450;8.654;2023-04-24T03:01:04;94714.13;;;7.93;96.96
44297;BME280;51842;47.450;8.654;2023-04-24T03:03:30;94701.13;;;7.92;97.01
44297;BME280;51842;47.450;8.654;2023-04-24T03:05:56;94704.31;;;7.94;96.41
44297;BME280;51842;47.450;8.654;2023-04-24T03:08:23;94698.72;;;7.95;96.32
44297;BME280;51842;47.450;8.654;2023-04-24T03:10:48;94700.88;;;7.93;95.74
44297;BME280;51842;47.450;8.654;2023-04-24T03:13:16;94701.13;;;7.97;95.56
44297;BME280;51842;47.450;8.654;2023-04-24T03:15:42;94700.31;;;8.01;95.70
44297;BME280;51842;47.450;8.654;2023-04-24T03:18:07;94698.97;;;8.04;95.90
44297;BME280;51842;47.450;8.654;2023-04-24T03:20:33;94691.84;;;7.99;95.24
44297;BME280;51842;47.450;8.654;2023-04-24T03:22:59;94703.75;;;8.02;96.06
44297;BME280;51842;47.450;8.654;2023-04-24T03:25:25;94699.50;;;8.01;95.36
44297;BME280;51842;47.450;8.654;2023-04-24T03:27:51;94699.50;;;8.01;95.50
44297;BME280;51842;47.450;8.654;2023-04-24T03:30:17;94700.06;;;8.03;95.04
44297;BME280;51842;47.450;8.654;2023-04-24T03:32:43;94705.59;;;8.06;94.82
44297;BME280;51842;47.450;8.654;2023-04-24T03:35:08;94703.50;;;8.03;94.62
44297;BME280;51842;47.450;8.654;2023-04-24T03:37:34;94701.38;;;8.05;94.54
44297;BME280;51842;47.450;8.654;2023-04-24T03:40:01;94704.81;;;8.06;94.59
44297;BME280;51842;47.450;8.654;2023-04-24T03:42:27;94700.06;;;8.03;93.43
44297;BME280;51842;47.450;8.654;2023-04-24T03:44:53;94695.53;;;7.98;93.38
44297;BME280;51842;47.450;8.654;2023-04-24T03:47:19;94696.06;;;8.00;92.70
44297;BME280;51842;47.450;8.654;2023-04-24T03:49:44;94697.91;;;8.05;93.07
44297;BME280;51842;47.450;8.654;2023-04-24T03:52:10;94705.88;;;8.05;93.04
44297;BME280;51842;47.450;8.654;2023-04-24T03:54:36;94699.78;;;8.04;92.55
44297;BME280;51842;47.450;8.654;2023-04-24T03:57:02;94696.88;;;8.06;93.12
44297;BME280;51842;47.450;8.654;2023-04-24T03:59:28;94699.22;;;8.07;93.04
44297;BME280;51842;47.450;8.654;2023-04-24T04:01:56;94693.41;;;8.05;91.82
44297;BME280;51842;47.450;8.654;2023-04-24T04:04:22;94690.22;;;8.08;91.59
44297;BME280;51842;47.450;8.654;2023-04-24T04:06:48;94694.72;;;8.08;91.65
44297;BME280;51842;47.450;8.654;2023-04-24T04:09:14;94702.66;;;8.08;91.70
44297;BME280;51842;47.450;8.654;2023-04-24T04:11:40;94698.44;;;8.07;91.55
44297;BME280;51842;47.450;8.654;2023-04-24T04:14:06;94696.88;;;8.01;90.97
44297;BME280;51842;47.450;8.654;2023-04-24T04:16:32;94693.13;;;8.02;90.96
44297;BME280;51842;47.450;8.654;2023-04-24T04:18:58;94702.66;;;8.08;91.93
44297;BME280;51842;47.450;8.654;2023-04-24T04:21:24;94706.16;;;8.03;90.48
44297;BME280;51842;47.450;8.654;2023-04-24T04:23:49;94705.31;;;8.08;90.44
44297;BME280;51842;47.450;8.654;2023-04-24T04:26:16;94716.75;;;8.08;90.24
44297;BME280;51842;47.450;8.654;2023-04-24T04:28:41;94713.53;;;8.11;90.34
44297;BME280;51842;47.450;8.654;2023-04-24T04:31:07;94724.13;;;8.11;90.52
44297;BME280;51842;47.450;8.654;2023-04-24T04:33:33;94726.78;;;8.11;89.97
44297;BME280;51842;47.450;8.654;2023-04-24T04:35:59;94725.47;;;8.14;89.68
44297;BME280;51842;47.450;8.654;2023-04-24T04:38:26;94731.84;;;8.18;90.26
44297;BME280;51842;47.450;8.654;2023-04-24T04:40:55;94736.88;;;8.20;90.01
44297;BME280;51842;47.450;8.654;2023-04-24T04:43:25;94746.41;;;8.21;90.09
44297;BME280;51842;47.450;8.654;2023-04-24T04:45:51;94751.75;;;8.16;90.13
44297;BME280;51842;47.450;8.654;2023-04-24T04:48:18;94757.06;;;8.16;90.73
44297;BME280;51842;47.450;8.654;2023-04-24T04:50:44;94771.88;;;8.17;92.63
44297;BME280;51842;47.450;8.654;2023-04-24T04:53:10;94780.13;;;8.15;93.30
44297;BME280;51842;47.450;8.654;2023-04-24T04:55:37;94778.53;;;8.04;93.55
44297;BME280;51842;47.450;8.654;2023-04-24T04:58:03;94786.50;;;7.99;94.97
44297;BME280;51842;47.450;8.654;2023-04-24T05:00:29;94789.69;;;7.96;95.81
44297;BME280;51842;47.450;8.654;2023-04-24T05:02:59;94804.81;;;7.90;96.33
44297;BME280;51842;47.450;8.654;2023-04-24T05:05:25;94803.75;;;7.86;97.56
44297;BME280;51842;47.450;8.654;2023-04-24T05:07:51;94795.03;;;7.80;98.27
44297;BME280;51842;47.450;8.654;2023-04-24T05:10:17;94810.13;;;7.80;98.90
44297;BME280;51842;47.450;8.654;2023-04-24T05:12:43;94798.47;;;7.76;99.45
44297;BME280;51842;47.450;8.654;2023-04-24T05:15:09;94813.28;;;7.77;100.00
44297;BME280;51842;47.450;8.654;2023-04-24T05:17:35;94819.41;;;7.72;100.00
44297;BME280;51842;47.450;8.654;2023-04-24T05:20:02;94810.94;;;7.65;100.00
44297;BME280;51842;47.450;8.654;2023-04-24T05:22:31;94824.69;;;7.67;100.00
44297;BME280;51842;47.450;8.654;2023-04-24T05:24:57;94821.00;;;7.63;100.00
44297;BME280;51842;47.450;8.654;2023-04-24T05:27:24;94824.97;;;7.60;100.00
44297;BME280;51842;47.450;8.654;2023-04-24T05:29:50;94826.81;;;7.60;100.00
44297;BME280;51842;47.450;8.654;2023-04-24T05:32:16;94830.00;;;7.62;100.00
44297;BME280;51842;47.450;8.654;2023-04-24T05:34:42;94832.09;;;7.55;100.00
44297;BME280;51842;47.450;8.654;2023-04-24T05:37:08;94836.09;;;7.57;100.00
44297;BME280;51842;47.450;8.654;2023-04-24T05:39:36;94841.66;;;7.56;100.00
44297;BME280;51842;47.450;8.654;2023-04-24T05:42:02;94839.53;;;7.58;100.00
44297;BME280;51842;47.450;8.654;2023-04-24T05:44:28;94850.13;;;7.53;100.00
44297;BME280;51842;47.450;8.654;2023-04-24T05:46:55;94849.88;;;7.49;100.00
44297;BME280;51842;47.450;8.654;2023-04-24T05:49:21;94850.66;;;7.55;100.00
44297;BME280;51842;47.450;8.654;2023-04-24T05:51:47;94847.22;;;7.59;100.00
44297;BME280;51842;47.450;8.654;2023-04-24T05:54:13;94855.69;;;7.61;100.00
44297;BME280;51842;47.450;8.654;2023-04-24T05:56:39;94858.63;;;7.65;100.00
44297;BME280;51842;47.450;8.654;2023-04-24T05:59:05;94866.06;;;7.68;100.00
44297;BME280;51842;47.450;8.654;2023-04-24T06:01:31;94869.75;;;7.67;100.00
44297;BME280;51842;47.450;8.654;2023-04-24T06:03:57;94878.78;;;7.71;100.00
44297;BME280;51842;47.450;8.654;2023-04-24T06:06:24;94880.38;;;7.72;100.00
44297;BME280;51842;47.450;8.654;2023-04-24T06:08:50;94867.91;;;7.83;100.00
44297;BME280;51842;47.450;8.654;2023-04-24T06:13:50;94870.06;;;8.06;98.56
44297;BME280;51842;47.450;8.654;2023-04-24T06:16:17;94870.59;;;8.19;98.46
44297;BME280;51842;47.450;8.654;2023-04-24T06:18:43;94865.81;;;8.26;97.12
44297;BME280;51842;47.450;8.654;2023-04-24T06:21:08;94866.34;;;8.28;96.08
44297;BME280;51842;47.450;8.654;2023-04-24T06:23:34;94870.03;;;8.37;95.36
44297;BME280;51842;47.450;8.654;2023-04-24T06:26:00;94875.38;;;8.52;96.21
44297;BME280;51842;47.450;8.654;2023-04-24T06:28:26;94875.63;;;8.56;95.16
44297;BME280;51842;47.450;8.654;2023-04-24T06:30:52;94872.16;;;8.50;93.99
44297;BME280;51842;47.450;8.654;2023-04-24T06:33:17;94878.00;;;8.57;93.61
44297;BME280;51842;47.450;8.654;2023-04-24T06:35:43;94870.56;;;8.60;92.54
44297;BME280;51842;47.450;8.654;2023-04-24T06:38:09;94879.56;;;8.69;93.20
44297;BME280;51842;47.450;8.654;2023-04-24T06:40:35;94869.72;;;8.79;92.71
44297;BME280;51842;47.450;8.654;2023-04-24T06:43:00;94872.31;;;8.90;92.01
44297;BME280;51842;47.450;8.654;2023-04-24T06:45:29;94875.16;;;9.14;91.33
44297;BME280;51842;47.450;8.654;2023-04-24T06:47:55;94861.50;;;9.36;90.24
44297;BME280;51842;47.450;8.654;2023-04-24T06:50:21;94873.94;;;9.45;88.28
44297;BME280;51842;47.450;8.654;2023-04-24T06:52:47;94885.97;;;9.38;89.27
44297;BME280;51842;47.450;8.654;2023-04-24T06:55:13;94882.50;;;9.37;90.99
44297;BME280;51842;47.450;8.654;2023-04-24T06:57:40;94883.06;;;9.29;91.02
44297;BME280;51842;47.450;8.654;2023-04-24T07:00:07;94890.03;;;9.20;92.22
44297;BME280;51842;47.450;8.654;2023-04-24T07:02:34;94886.09;;;9.07;92.90
44297;BME280;51842;47.450;8.654;2023-04-24T07:05:00;94883.66;;;9.16;93.86
44297;BME280;51842;47.450;8.654;2023-04-24T07:07:27;94889.25;;;9.14;94.87
44297;BME280;51842;47.450;8.654;2023-04-24T07:09:53;94879.94;;;9.17;94.90
44297;BME280;51842;47.450;8.654;2023-04-24T07:12:19;94890.84;;;9.15;95.26
44297;BME280;51842;47.450;8.654;2023-04-24T07:14:47;94894.31;;;9.06;94.33
44297;BME280;51842;47.450;8.654;2023-04-24T07:17:13;94880.50;;;9.09;93.36
44297;BME280;51842;47.450;8.654;2023-04-24T07:19:39;94882.53;;;9.27;94.08
44297;BME280;51842;47.450;8.654;2023-04-24T07:22:05;94881.94;;;9.45;93.05
44297;BME280;51842;47.450;8.654;2023-04-24T07:24:31;94883.72;;;9.55;92.34
44297;BME280;51842;47.450;8.654;2023-04-24T07:26:58;94879.66;;;9.68;91.88
44297;BME280;51842;47.450;8.654;2023-04-24T07:29:24;94887.38;;;9.75;90.58
44297;BME280;51842;47.450;8.654;2023-04-24T07:31:50;94888.78;;;10.01;90.76
44297;BME280;51842;47.450;8.654;2023-04-24T07:34:16;94896.78;;;10.35;88.88
44297;BME280;51842;47.450;8.654;2023-04-24T07:36:42;94901.25;;;10.40;86.58
44297;BME280;51842;47.450;8.654;2023-04-24T07:39:08;94913.31;;;10.61;87.00
44297;BME280;51842;47.450;8.654;2023-04-24T07:41:34;94910.06;;;10.70;85.51
44297;BME280;51842;47.450;8.654;2023-04-24T07:44:00;94915.88;;;10.72;83.99
44297;BME280;51842;47.450;8.654;2023-04-24T07:46:26;94912.44;;;10.71;83.50
44297;BME280;51842;47.450;8.654;2023-04-24T07:48:55;94911.72;;;10.31;80.15
44297;BME280;51842;47.450;8.654;2023-04-24T07:51:21;94922.66;;;10.30;82.78
44297;BME280;51842;47.450;8.654;2023-04-24T07:53:47;94922.75;;;10.49;83.43
44297;BME280;51842;47.450;8.654;2023-04-24T07:56:13;94920.56;;;10.56;83.09
44297;BME280;51842;47.450;8.654;2023-04-24T07:58:38;94935.03;;;10.45;80.99
44297;BME280;51842;47.450;8.654;2023-04-24T08:01:04;94949.50;;;9.89;77.73
44297;BME280;51842;47.450;8.654;2023-04-24T08:03:30;94955.53;;;9.55;77.88
44297;BME280;51842;47.450;8.654;2023-04-24T08:05:56;94948.03;;;9.02;78.25
44297;BME280;51842;47.450;8.654;2023-04-24T08:08:22;94955.00;;;8.52;81.21
44297;BME280;51842;47.450;8.654;2023-04-24T08:10:49;94955.47;;;8.29;82.04
44297;BME280;51842;47.450;8.654;2023-04-24T08:13:15;94986.53;;;8.23;82.66
44297;BME280;51842;47.450;8.654;2023-04-24T08:15:41;94997.66;;;8.15;85.59
44297;BME280;51842;47.450;8.654;2023-04-24T08:18:07;95006.63;;;7.99;83.92
44297;BME280;51842;47.450;8.654;2023-04-24T08:20:33;95014.56;;;7.88;87.62
44297;BME280;51842;47.450;8.654;2023-04-24T08:22:59;95006.81;;;7.67;87.98
44297;BME280;51842;47.450;8.654;2023-04-24T08:25:24;95012.31;;;7.55;88.27
44297;BME280;51842;47.450;8.654;2023-04-24T08:27:51;95023.75;;;7.55;90.65
44297;BME280;51842;47.450;8.654;2023-04-24T08:30:18;95022.56;;;7.36;89.02
44297;BME280;51842;47.450;8.654;2023-04-24T08:32:43;95020.97;;;7.35;89.93
44297;BME280;51842;47.450;8.654;2023-04-24T08:35:09;95020.16;;;7.24;91.35
44297;BME280;51842;47.450;8.654;2023-04-24T08:37:36;95019.56;;;7.17;91.76
44297;BME280;51842;47.450;8.654;2023-04-24T08:40:16;95024.34;;;7.20;93.04
44297;BME280;51842;47.450;8.654;2023-04-24T08:42:43;95025.63;;;7.12;92.65
44297;BME280;51842;47.450;8.654;2023-04-24T08:45:11;95022.72;;;7.14;92.18
44297;BME280;51842;47.450;8.654;2023-04-24T08:47:41;95030.94;;;7.12;88.58
44297;BME280;51842;47.450;8.654;2023-04-24T08:50:09;95029.41;;;7.27;91.77
44297;BME280;51842;47.450;8.654;2023-04-24T08:52:36;95031.38;;;7.52;90.92
44297;BME280;51842;47.450;8.654;2023-04-24T08:55:02;95032.84;;;7.75;90.99
44297;BME280;51842;47.450;8.654;2023-04-24T08:57:29;95023.88;;;8.01;89.21
44297;BME280;51842;47.450;8.654;2023-04-24T08:59:58;95024.72;;;8.22;88.84
44297;BME280;51842;47.450;8.654;2023-04-24T09:02:24;95038.88;;;8.43;89.01
44297;BME280;51842;47.450;8.654;2023-04-24T09:04:51;95038.34;;;8.77;90.00
44297;BME280;51842;47.450;8.654;2023-04-24T09:07:20;95037.53;;;9.12;85.51
44297;BME280;51842;47.450;8.654;2023-04-24T09:09:50;95030.84;;;9.35;83.56
44297;BME280;51842;47.450;8.654;2023-04-24T09:12:17;95034.50;;;9.60;83.25
44297;BME280;51842;47.450;8.654;2023-04-24T09:14:45;95037.34;;;9.79;80.00
44297;BME280;51842;47.450;8.654;2023-04-24T09:17:11;95037.78;;;10.01;79.95
44297;BME280;51842;47.450;8.654;2023-04-24T09:19:37;95035.56;;;10.18;76.92
44297;BME280;51842;47.450;8.654;2023-04-24T09:22:07;95034.72;;;10.68;75.64
44297;BME280;51842;47.450;8.654;2023-04-24T09:24:34;95040.06;;;10.97;74.67
44297;BME280;51842;47.450;8.654;2023-04-24T09:27:01;95035.50;;;11.55;73.31
44297;BME280;51842;47.450;8.654;2023-04-24T09:29:27;95026.81;;;11.69;68.82
44297;BME280;51842;47.450;8.654;2023-04-24T09:31:53;95034.91;;;11.64;66.95
44297;BME280;51842;47.450;8.654;2023-04-24T09:34:27;95034.69;;;11.31;67.00
44297;BME280;51842;47.450;8.654;2023-04-24T09:36:54;95026.34;;;11.14;66.05
44297;BME280;51842;47.450;8.654;2023-04-24T09:39:20;95030.50;;;10.96;63.57
44297;BME280;51842;47.450;8.654;2023-04-24T09:41:52;95025.50;;;10.89;64.48
44297;BME280;51842;47.450;8.654;2023-04-24T09:44:22;95031.19;;;10.77;63.65
44297;BME280;51842;47.450;8.654;2023-04-24T09:46:59;95032.72;;;10.83;65.08
44297;BME280;51842;47.450;8.654;2023-04-24T09:49:29;95026.53;;;10.59;63.50
44297;BME280;51842;47.450;8.654;2023-04-24T09:52:08;95035.22;;;10.35;63.86
44297;BME280;51842;47.450;8.654;2023-04-24T09:54:35;95029.34;;;10.38;64.61
44297;BME280;51842;47.450;8.654;2023-04-24T09:57:02;95045.22;;;10.54;69.30
44297;BME280;51842;47.450;8.654;2023-04-24T09:59:30;95034.41;;;10.74;66.82
44297;BME280;51842;47.450;8.654;2023-04-24T10:01:56;95033.69;;;10.98;65.54
44297;BME280;51842;47.450;8.654;2023-04-24T10:04:27;95033.59;;;11.08;66.34
44297;BME280;51842;47.450;8.654;2023-04-24T10:06:56;95041.00;;;11.40;64.99
44297;BME280;51842;47.450;8.654;2023-04-24T10:09:25;95045.31;;;11.89;64.50
44297;BME280;51842;47.450;8.654;2023-04-24T10:11:53;95044.50;;;12.32;61.70
44297;BME280;51842;47.450;8.654;2023-04-24T10:14:22;95038.63;;;12.86;61.97
44297;BME280;51842;47.450;8.654;2023-04-24T10:16:50;95038.59;;;13.19;59.56
44297;BME280;51842;47.450;8.654;2023-04-24T10:19:18;95032.16;;;13.53;59.27
44297;BME280;51842;47.450;8.654;2023-04-24T10:21:44;95031.16;;;14.18;58.21
44297;BME280;51842;47.450;8.654;2023-04-24T10:24:18;95034.84;;;13.94;54.21
44297;BME280;51842;47.450;8.654;2023-04-24T10:26:46;95028.88;;;13.97;56.23
44297;BME280;51842;47.450;8.654;2023-04-24T10:29:19;95010.06;;;14.39;54.53
44297;BME280;51842;47.450;8.654;2023-04-24T10:31:46;95021.28;;;14.77;54.84
44297;BME280;51842;47.450;8.654;2023-04-24T10:34:16;95028.03;;;14.74;54.46
44297;BME280;51842;47.450;8.654;2023-04-24T10:36:49;95037.00;;;14.70;51.60
44297;BME280;51842;47.450;8.654;2023-04-24T10:39:16;95044.78;;;14.44;53.21
44297;BME280;51842;47.450;8.654;2023-04-24T10:41:43;95047.50;;;15.02;51.10
44297;BME280;51842;47.450;8.654;2023-04-24T10:44:12;95055.88;;;15.63;50.16
44297;BME280;51842;47.450;8.654;2023-04-24T10:46:43;95041.16;;;15.52;49.80
44297;BME280;51842;47.450;8.654;2023-04-24T10:49:09;95041.59;;;15.23;49.73
44297;BME280;51842;47.450;8.654;2023-04-24T10:51:51;95041.81;;;15.26;48.27
44297;BME280;51842;47.450;8.654;2023-04-24T10:54:50;95031.19;;;15.21;46.13
44297;BME280;51842;47.450;8.654;2023-04-24T10:59:47;95037.44;;;15.08;46.72
44297;BME280;51842;47.450;8.654;2023-04-24T11:02:18;95034.47;;;15.72;47.19
44297;BME280;51842;47.450;8.654;2023-04-24T11:04:45;95035.91;;;15.78;47.37
44297;BME280;51842;47.450;8.654;2023-04-24T11:07:11;95037.84;;;15.86;49.90
44297;BME280;51842;47.450;8.654;2023-04-24T11:09:38;95048.00;;;16.07;49.30
44297;BME280;51842;47.450;8.654;2023-04-24T11:12:09;95051.22;;;15.46;48.90
44297;BME280;51842;47.450;8.654;2023-04-24T11:17:39;95060.56;;;15.49;48.92
44297;BME280;51842;47.450;8.654;2023-04-24T11:20:10;95054.91;;;15.28;51.76
44297;BME280;51842;47.450;8.654;2023-04-24T11:22:39;95055.47;;;15.16;50.68
44297;BME280;51842;47.450;8.654;2023-04-24T11:25:09;95059.44;;;14.96;52.10
44297;BME280;51842;47.450;8.654;2023-04-24T11:27:41;95050.75;;;14.54;50.07
44297;BME280;51842;47.450;8.654;2023-04-24T11:30:08;95058.75;;;14.68;50.98
44297;BME280;51842;47.450;8.654;2023-04-24T11:37:46;95056.81;;;15.27;47.28
44297;BME280;51842;47.450;8.654;2023-04-24T11:40:16;95069.06;;;15.51;48.12
44297;BME280;51842;47.450;8.654;2023-04-24T11:42:47;95070.16;;;15.72;47.76
44297;BME280;51842;47.450;8.654;2023-04-24T11:45:27;95067.31;;;15.69;48.18
44297;BME280;51842;47.450;8.654;2023-04-24T11:47:53;95071.34;;;15.89;49.77
44297;BME280;51842;47.450;8.654;2023-04-24T11:50:23;95082.03;;;15.04;48.31
44297;BME280;51842;47.450;8.654;2023-04-24T11:52:51;95079.28;;;14.73;47.76
44297;BME280;51842;47.450;8.654;2023-04-24T11:57:55;95071.69;;;14.25;48.44
44297;BME280;51842;47.450;8.654;2023-04-24T12:00:31;95075.69;;;14.77;49.23
44297;BME280;51842;47.450;8.654;2023-04-24T12:03:11;95063.31;;;15.13;50.02
44297;BME280;51842;47.450;8.654;2023-04-24T12:05:38;95065.22;;;15.12;51.18
44297;BME280;51842;47.450;8.654;2023-04-24T12:08:04;95065.56;;;15.19;49.21
44297;BME280;51842;47.450;8.654;2023-04-24T12:10:32;95077.72;;;15.39;51.60
44297;BME280;51842;47.450;8.654;2023-04-24T12:12:59;95065.63;;;15.28;49.36
44297;BME280;51842;47.450;8.654;2023-04-24T12:15:27;95079.28;;;15.40;49.23
44297;BME280;51842;47.450;8.654;2023-04-24T12:17:54;95068.91;;;15.47;50.17
44297;BME280;51842;47.450;8.654;2023-04-24T12:20:32;95075.81;;;15.40;48.75
44297;BME280;51842;47.450;8.654;2023-04-24T12:23:00;95074.56;;;15.68;51.53
44297;BME280;51842;47.450;8.654;2023-04-24T12:25:32;95081.78;;;15.90;47.95
44297;BME280;51842;47.450;8.654;2023-04-24T12:30:32;95073.63;;;16.13;46.13
44297;BME280;51842;47.450;8.654;2023-04-24T12:33:00;95062.50;;;16.46;46.12
44297;BME280;51842;47.450;8.654;2023-04-24T12:35:30;95076.41;;;16.56;47.08
44297;BME280;51842;47.450;8.654;2023-04-24T12:38:13;95067.31;;;16.09;45.83
44297;BME280;51842;47.450;8.654;2023-04-24T12:40:42;95068.88;;;16.10;44.77
44297;BME280;51842;47.450;8.654;2023-04-24T12:43:18;95080.03;;;15.94;46.12
44297;BME280;51842;47.450;8.654;2023-04-24T12:45:45;95077.06;;;15.65;50.03
44297;BME280;51842;47.450;8.654;2023-04-24T12:48:11;95060.00;;;15.38;52.98
44297;BME280;51842;47.450;8.654;2023-04-24T12:50:39;95066.41;;;15.20;52.42
44297;BME280;51842;47.450;8.654;2023-04-24T12:53:08;95054.38;;;15.17;48.85
44297;BME280;51842;47.450;8.654;2023-04-24T12:55:34;95049.38;;;15.02;50.09
44297;BME280;51842;47.450;8.654;2023-04-24T12:58:01;95048.44;;;15.29;48.06
44297;BME280;51842;47.450;8.654;2023-04-24T13:00:28;95051.22;;;15.46;44.52
44297;BME280;51842;47.450;8.654;2023-04-24T13:02:54;95050.91;;;15.48;45.17
44297;BME280;51842;47.450;8.654;2023-04-24T13:05:20;95048.22;;;15.48;47.99
44297;BME280;51842;47.450;8.654;2023-04-24T13:07:46;95056.69;;;15.64;45.99
44297;BME280;51842;47.450;8.654;2023-04-24T13:10:12;95050.81;;;15.62;46.74
44297;BME280;51842;47.450;8.654;2023-04-24T13:12:39;95046.16;;;15.76;45.73
44297;BME280;51842;47.450;8.654;2023-04-24T13:15:06;95050.13;;;15.70;44.74
44297;BME280;51842;47.450;8.654;2023-04-24T13:17:31;95059.31;;;15.55;45.00
44297;BME280;51842;47.450;8.654;2023-04-24T13:19:58;95051.22;;;15.46;42.93
44297;BME280;51842;47.450;8.654;2023-04-24T13:22:24;95046.81;;;15.50;45.55